sensor_id;sensor_type;location;lat;lon;timestamp;temperature;humidity
22558;DHT22;11445;53.816;8.902;2023-01-08T00:00:13;8.70;99.90
22558;DHT22;11445;53.816;8.902;2023-01-08T00:02:40;8.70;99.90
22558;DHT22;11445;53.816;8.902;2023-01-08T00:05:07;8.70;99.90
22558;DHT22;11445;53.816;8.902;2023-01-08T00:07:36;8.70;99.90
22558;DHT22;11445;53.816;8.902;2023-01-08T00:10:03;8.70;99.90
22558;DHT22;11445;53.816;8.902;2023-01-08T00:12:30;8.70;99.90
22558;DHT22;11445;53.816;8.902;2023-01-08T00:14:57;8.70;99.90
22558;DHT22;11445;53.816;8.902;2023-01-08T00:17:25;8.70;99.90
22558;DHT22;11445;53.816;8.902;2023-01-08T00:19:53;8.70;99.90
22558;DHT22;11445;53.816;8.902;2023-01-08T00:22:20;8.70;99.90
22558;DHT22;11445;53.816;8.902;2023-01-08T00:24:47;8.70;99.90
22558;DHT22;11445;53.816;8.902;2023-01-08T00:27:14;8.70;99.90
22558;DHT22;11445;53.816;8.902;2023-01-08T00:29:40;8.70;99.90
22558;DHT22;11445;53.816;8.902;2023-01-08T00:32:07;8.70;99.90
22558;DHT22;11445;53.816;8.902;2023-01-08T00:34:36;8.70;99.90
22558;DHT22;11445;53.816;8.902;2023-01-08T00:37:03;8.70;99.90
22558;DHT22;11445;53.816;8.902;2023-01-08T00:39:30;8.70;99.90
22558;DHT22;11445;53.816;8.902;2023-01-08T00:41:57;8.80;99.90
22558;DHT22;11445;53.816;8.902;2023-01-08T00:44:24;8.80;99.90
22558;DHT22;11445;53.816;8.902;2023-01-08T00:46:51;8.80;99.90
22558;DHT22;11445;53.816;8.902;2023-01-08T00:49:18;8.80;99.90
22558;DHT22;11445;53.816;8.902;2023-01-08T00:51:46;8.80;99.90
22558;DHT22;11445;53.816;8.902;2023-01-08T00:54:13;8.80;99.90
22558;DHT22;11445;53.816;8.902;2023-01-08T00:56:40;8.80;99.90
22558;DHT22;11445;53.816;8.902;2023-01-08T00:59:07;8.80;99.90
22558;DHT22;11445;53.816;8.902;2023-01-08T01:01:34;8.80;99.90
22558;DHT22;11445;53.816;8.902;2023-01-08T01:04:01;8.80;99.90
22558;DHT22;11445;53.816;8.902;2023-01-08T01:06:29;8.80;99.90
22558;DHT22;11445;53.816;8.902;2023-01-08T01:08:57;8.80;99.90
22558;DHT22;11445;53.816;8.902;2023-01-08T01:11:26;8.80;99.90
22558;DHT22;11445;53.816;8.902;2023-01-08T01:13:54;8.80;99.90
22558;DHT22;11445;53.816;8.902;2023-01-08T01:16:21;8.80;99.90
22558;DHT22;11445;53.816;8.902;2023-01-08T01:18:48;8.80;99.90
22558;DHT22;11445;53.816;8.902;2023-01-08T01:21:21;8.80;99.90
22558;DHT22;11445;53.816;8.902;2023-01-08T01:23:48;8.80;99.90
22558;DHT22;11445;53.816;8.902;2023-01-08T01:26:18;8.80;99.90
22558;DHT22;11445;53.816;8.902;2023-01-08T01:28:47;8.80;99.90
22558;DHT22;11445;53.816;8.902;2023-01-08T01:31:14;8.70;99.90
22558;DHT22;11445;53.816;8.902;2023-01-08T01:33:42;8.70;99.90
22558;DHT22;11445;53.816;8.902;2023-01-08T01:36:11;8.70;99.90
22558;DHT22;11445;53.816;8.902;2023-01-08T01:38:41;8.70;99.90
22558;DHT22;11445;53.816;8.902;2023-01-08T01:41:14;8.70;99.90
22558;DHT22;11445;53.816;8.902;2023-01-08T01:43:45;8.70;99.90
22558;DHT22;11445;53.816;8.902;2023-01-08T01:46:19;8.70;99.90
22558;DHT22;11445;53.816;8.902;2023-01-08T01:48:49;8.70;99.90
22558;DHT22;11445;53.816;8.902;2023-01-08T01:51:18;8.70;99.90
22558;DHT22;11445;53.816;8.902;2023-01-08T01:53:45;8.70;99.90
22558;DHT22;11445;53.816;8.902;2023-01-08T01:56:12;8.70;99.90
22558;DHT22;11445;53.816;8.902;2023-01-08T01:58:39;8.70;99.90
22558;DHT22;11445;53.816;8.902;2023-01-08T02:01:09;8.70;99.90
22558;DHT22;11445;53.816;8.902;2023-01-08T02:03:38;8.70;99.90
22558;DHT22;11445;53.816;8.902;2023-01-08T02:06:21;8.70;99.90
22558;DHT22;11445;53.816;8.902;2023-01-08T02:08:55;8.60;99.90
22558;DHT22;11445;53.816;8.902;2023-01-08T02:11:32;8.60;99.90
22558;DHT22;11445;53.816;8.902;2023-01-08T02:14:06;8.60;99.90
22558;DHT22;11445;53.816;8.902;2023-01-08T02:16:40;8.60;99.90
22558;DHT22;11445;53.816;8.902;2023-01-08T02:19:16;8.60;99.90
22558;DHT22;11445;53.816;8.902;2023-01-08T02:21:56;8.50;99.90
22558;DHT22;11445;53.816;8.902;2023-01-08T02:24:37;8.50;99.90
22558;DHT22;11445;53.816;8.902;2023-01-08T02:27:09;8.50;99.90
22558;DHT22;11445;53.816;8.902;2023-01-08T02:29:37;8.50;99.90
22558;DHT22;11445;53.816;8.902;2023-01-08T02:32:05;8.50;99.90
22558;DHT22;11445;53.816;8.902;2023-01-08T02:34:32;8.40;99.90
22558;DHT22;11445;53.816;8.902;2023-01-08T02:36:59;8.40;99.90
22558;DHT22;11445;53.816;8.902;2023-01-08T02:42:38;8.40;99.90
22558;DHT22;11445;53.816;8.902;2023-01-08T02:45:14;8.30;99.90
22558;DHT22;11445;53.816;8.902;2023-01-08T02:47:47;8.30;99.90
22558;DHT22;11445;53.816;8.902;2023-01-08T02:50:23;8.30;99.90
22558;DHT22;11445;53.816;8.902;2023-01-08T02:52:55;8.30;99.90
22558;DHT22;11445;53.816;8.902;2023-01-08T02:55:25;8.20;99.90
22558;DHT22;11445;53.816;8.902;2023-01-08T02:57:55;8.20;99.90
22558;DHT22;11445;53.816;8.902;2023-01-08T03:00:23;8.20;99.90
22558;DHT22;11445;53.816;8.902;2023-01-08T03:02:58;8.20;99.90
22558;DHT22;11445;53.816;8.902;2023-01-08T03:05:27;8.20;99.90
22558;DHT22;11445;53.816;8.902;2023-01-08T03:07:55;8.20;99.90
22558;DHT22;11445;53.816;8.902;2023-01-08T03:10:25;8.20;99.90
22558;DHT22;11445;53.816;8.902;2023-01-08T03:12:56;8.20;99.90
22558;DHT22;11445;53.816;8.902;2023-01-08T03:15:30;8.20;99.90
22558;DHT22;11445;53.816;8.902;2023-01-08T03:18:01;8.20;99.90
22558;DHT22;11445;53.816;8.902;2023-01-08T03:20:31;8.20;99.90
22558;DHT22;11445;53.816;8.902;2023-01-08T03:22:59;8.20;99.90
22558;DHT22;11445;53.816;8.902;2023-01-08T03:25:28;8.20;99.90
22558;DHT22;11445;53.816;8.902;2023-01-08T03:28:01;8.10;99.90
22558;DHT22;11445;53.816;8.902;2023-01-08T03:30:29;8.10;99.90
22558;DHT22;11445;53.816;8.902;2023-01-08T03:32:58;8.10;99.90
22558;DHT22;11445;53.816;8.902;2023-01-08T03:35:27;8.10;99.90
22558;DHT22;11445;53.816;8.902;2023-01-08T03:37:57;8.10;99.90
22558;DHT22;11445;53.816;8.902;2023-01-08T03:40:30;8.10;99.90
22558;DHT22;11445;53.816;8.902;2023-01-08T03:42:59;8.10;99.90
22558;DHT22;11445;53.816;8.902;2023-01-08T03:45:27;8.10;99.90
22558;DHT22;11445;53.816;8.902;2023-01-08T03:47:56;8.10;99.90
22558;DHT22;11445;53.816;8.902;2023-01-08T03:50:26;8.00;99.90
22558;DHT22;11445;53.816;8.902;2023-01-08T03:52:54;8.00;99.90
22558;DHT22;11445;53.816;8.902;2023-01-08T03:55:21;8.00;99.90
22558;DHT22;11445;53.816;8.902;2023-01-08T03:57:48;8.00;99.90
22558;DHT22;11445;53.816;8.902;2023-01-08T04:00:16;8.00;99.90
22558;DHT22;11445;53.816;8.902;2023-01-08T04:02:43;8.00;99.90
22558;DHT22;11445;53.816;8.902;2023-01-08T04:05:11;8.10;99.90
22558;DHT22;11445;53.816;8.902;2023-01-08T04:07:38;8.10;99.90
22558;DHT22;11445;53.816;8.902;2023-01-08T04:10:06;8.10;99.90
22558;DHT22;11445;53.816;8.902;2023-01-08T04:12:33;8.10;99.90
22558;DHT22;11445;53.816;8.902;2023-01-08T04:15:00;8.10;99.90
22558;DHT22;11445;53.816;8.902;2023-01-08T04:17:28;8.20;99.90
22558;DHT22;11445;53.816;8.902;2023-01-08T04:19:55;8.20;99.90
22558;DHT22;11445;53.816;8.902;2023-01-08T04:22:22;8.20;99.90
22558;DHT22;11445;53.816;8.902;2023-01-08T04:24:49;8.20;99.90
22558;DHT22;11445;53.816;8.902;2023-01-08T04:27:16;8.20;99.90
22558;DHT22;11445;53.816;8.902;2023-01-08T04:29:43;8.20;99.90
22558;DHT22;11445;53.816;8.902;2023-01-08T04:32:10;8.20;99.90
22558;DHT22;11445;53.816;8.902;2023-01-08T04:34:38;8.20;99.90
22558;DHT22;11445;53.816;8.902;2023-01-08T04:37:05;8.30;99.90
22558;DHT22;11445;53.816;8.902;2023-01-08T04:39:32;8.30;99.90
22558;DHT22;11445;53.816;8.902;2023-01-08T04:41:59;8.30;99.90
22558;DHT22;11445;53.816;8.902;2023-01-08T04:44:26;8.30;99.90
22558;DHT22;11445;53.816;8.902;2023-01-08T04:46:53;8.40;99.90
22558;DHT22;11445;53.816;8.902;2023-01-08T04:49:20;8.40;99.90
22558;DHT22;11445;53.816;8.902;2023-01-08T04:51:49;8.50;99.90
22558;DHT22;11445;53.816;8.902;2023-01-08T04:54:16;8.50;99.90
22558;DHT22;11445;53.816;8.902;2023-01-08T04:56:43;8.50;99.90
22558;DHT22;11445;53.816;8.902;2023-01-08T04:59:10;8.60;99.90
22558;DHT22;11445;53.816;8.902;2023-01-08T05:01:37;8.60;99.90
22558;DHT22;11445;53.816;8.902;2023-01-08T05:04:04;8.60;99.90
22558;DHT22;11445;53.816;8.902;2023-01-08T05:06:31;8.60;99.90
22558;DHT22;11445;53.816;8.902;2023-01-08T05:09:00;8.60;99.90
22558;DHT22;11445;53.816;8.902;2023-01-08T05:11:27;8.60;99.90
22558;DHT22;11445;53.816;8.902;2023-01-08T05:13:54;8.60;99.90
22558;DHT22;11445;53.816;8.902;2023-01-08T05:16:22;8.60;99.90
22558;DHT22;11445;53.816;8.902;2023-01-08T05:18:49;8.60;99.90
22558;DHT22;11445;53.816;8.902;2023-01-08T05:21:16;8.60;99.90
22558;DHT22;11445;53.816;8.902;2023-01-08T05:23:45;8.60;99.90
22558;DHT22;11445;53.816;8.902;2023-01-08T05:26:14;8.60;99.90
22558;DHT22;11445;53.816;8.902;2023-01-08T05:28:42;8.60;99.90
22558;DHT22;11445;53.816;8.902;2023-01-08T05:31:09;8.60;99.90
22558;DHT22;11445;53.816;8.902;2023-01-08T05:33:37;8.50;99.90
22558;DHT22;11445;53.816;8.902;2023-01-08T05:36:05;8.50;99.90
22558;DHT22;11445;53.816;8.902;2023-01-08T05:38:32;8.50;99.90
22558;DHT22;11445;53.816;8.902;2023-01-08T05:40:59;8.50;99.90
22558;DHT22;11445;53.816;8.902;2023-01-08T05:43:28;8.50;99.90
22558;DHT22;11445;53.816;8.902;2023-01-08T05:45:57;8.50;99.90
22558;DHT22;11445;53.816;8.902;2023-01-08T05:48:24;8.50;99.90
22558;DHT22;11445;53.816;8.902;2023-01-08T05:50:51;8.50;99.90
22558;DHT22;11445;53.816;8.902;2023-01-08T05:53:18;8.40;99.90
22558;DHT22;11445;53.816;8.902;2023-01-08T05:55:45;8.40;99.90
22558;DHT22;11445;53.816;8.902;2023-01-08T05:58:12;8.40;99.90
22558;DHT22;11445;53.816;8.902;2023-01-08T06:00:45;8.40;99.90
22558;DHT22;11445;53.816;8.902;2023-01-08T06:03:12;8.40;99.90
22558;DHT22;11445;53.816;8.902;2023-01-08T06:05:39;8.40;99.90
22558;DHT22;11445;53.816;8.902;2023-01-08T06:08:06;8.40;99.90
22558;DHT22;11445;53.816;8.902;2023-01-08T06:10:33;8.40;99.90
22558;DHT22;11445;53.816;8.902;2023-01-08T06:13:00;8.40;99.90
22558;DHT22;11445;53.816;8.902;2023-01-08T06:15:27;8.40;99.90
22558;DHT22;11445;53.816;8.902;2023-01-08T06:17:55;8.40;99.90
22558;DHT22;11445;53.816;8.902;2023-01-08T06:20:22;8.40;99.90
22558;DHT22;11445;53.816;8.902;2023-01-08T06:22:49;8.40;99.90
22558;DHT22;11445;53.816;8.902;2023-01-08T06:25:19;8.40;99.90
22558;DHT22;11445;53.816;8.902;2023-01-08T06:27:49;8.40;99.90
22558;DHT22;11445;53.816;8.902;2023-01-08T06:30:16;8.50;99.90
22558;DHT22;11445;53.816;8.902;2023-01-08T06:32:44;8.40;99.90
22558;DHT22;11445;53.816;8.902;2023-01-08T06:35:12;8.40;99.90
22558;DHT22;11445;53.816;8.902;2023-01-08T06:37:39;8.40;99.90
22558;DHT22;11445;53.816;8.902;2023-01-08T06:40:07;8.40;99.90
22558;DHT22;11445;53.816;8.902;2023-01-08T06:42:34;8.40;99.90
22558;DHT22;11445;53.816;8.902;2023-01-08T06:45:01;8.40;99.90
22558;DHT22;11445;53.816;8.902;2023-01-08T06:47:28;8.40;99.90
22558;DHT22;11445;53.816;8.902;2023-01-08T06:49:55;8.40;99.90
22558;DHT22;11445;53.816;8.902;2023-01-08T06:52:25;8.40;99.90
22558;DHT22;11445;53.816;8.902;2023-01-08T06:54:52;8.40;99.90
22558;DHT22;11445;53.816;8.902;2023-01-08T06:57:19;8.40;99.90
22558;DHT22;11445;53.816;8.902;2023-01-08T06:59:46;8.40;99.90
22558;DHT22;11445;53.816;8.902;2023-01-08T07:02:13;8.40;99.90
22558;DHT22;11445;53.816;8.902;2023-01-08T07:04:41;8.40;99.90
22558;DHT22;11445;53.816;8.902;2023-01-08T07:07:08;8.40;99.90
22558;DHT22;11445;53.816;8.902;2023-01-08T07:09:37;8.40;99.90
22558;DHT22;11445;53.816;8.902;2023-01-08T07:12:05;8.40;99.90
22558;DHT22;11445;53.816;8.902;2023-01-08T07:14:33;8.40;99.90
22558;DHT22;11445;53.816;8.902;2023-01-08T07:17:00;8.40;99.90
22558;DHT22;11445;53.816;8.902;2023-01-08T07:19:27;8.40;99.90
22558;DHT22;11445;53.816;8.902;2023-01-08T07:21:55;8.40;99.90
22558;DHT22;11445;53.816;8.902;2023-01-08T07:24:22;8.40;99.90
22558;DHT22;11445;53.816;8.902;2023-01-08T07:26:51;8.40;99.90
22558;DHT22;11445;53.816;8.902;2023-01-08T07:29:18;8.40;99.90
22558;DHT22;11445;53.816;8.902;2023-01-08T07:31:45;8.40;99.90
22558;DHT22;11445;53.816;8.902;2023-01-08T07:34:12;8.40;99.90
22558;DHT22;11445;53.816;8.902;2023-01-08T07:36:39;8.40;99.90
22558;DHT22;11445;53.816;8.902;2023-01-08T07:39:06;8.40;99.90
22558;DHT22;11445;53.816;8.902;2023-01-08T07:41:33;8.40;99.90
22558;DHT22;11445;53.816;8.902;2023-01-08T07:44:01;8.40;99.90
22558;DHT22;11445;53.816;8.902;2023-01-08T07:46:28;8.40;99.90
22558;DHT22;11445;53.816;8.902;2023-01-08T07:48:55;8.40;99.90
22558;DHT22;11445;53.816;8.902;2023-01-08T07:51:22;8.40;99.90
22558;DHT22;11445;53.816;8.902;2023-01-08T07:53:49;8.40;99.90
22558;DHT22;11445;53.816;8.902;2023-01-08T07:56:16;8.40;99.90
22558;DHT22;11445;53.816;8.902;2023-01-08T07:58:43;8.40;99.90
22558;DHT22;11445;53.816;8.902;2023-01-08T08:01:12;8.40;99.90
22558;DHT22;11445;53.816;8.902;2023-01-08T08:03:39;8.40;99.90
22558;DHT22;11445;53.816;8.902;2023-01-08T08:06:07;8.40;99.90
22558;DHT22;11445;53.816;8.902;2023-01-08T08:08:34;8.40;99.90
22558;DHT22;11445;53.816;8.902;2023-01-08T08:11:01;8.40;99.90
22558;DHT22;11445;53.816;8.902;2023-01-08T08:13:28;8.40;99.90
22558;DHT22;11445;53.816;8.902;2023-01-08T08:16:00;8.40;99.90
22558;DHT22;11445;53.816;8.902;2023-01-08T08:18:28;8.40;99.90
22558;DHT22;11445;53.816;8.902;2023-01-08T08:20:55;8.40;99.90
22558;DHT22;11445;53.816;8.902;2023-01-08T08:23:22;8.40;99.90
22558;DHT22;11445;53.816;8.902;2023-01-08T08:25:49;8.40;99.90
22558;DHT22;11445;53.816;8.902;2023-01-08T08:28:17;8.40;99.90
22558;DHT22;11445;53.816;8.902;2023-01-08T08:30:44;8.40;99.90
22558;DHT22;11445;53.816;8.902;2023-01-08T08:33:11;8.40;99.90
22558;DHT22;11445;53.816;8.902;2023-01-08T08:35:39;8.40;99.90
22558;DHT22;11445;53.816;8.902;2023-01-08T08:38:06;8.40;99.90
22558;DHT22;11445;53.816;8.902;2023-01-08T08:40:33;8.40;99.90
22558;DHT22;11445;53.816;8.902;2023-01-08T08:43:02;8.40;99.90
22558;DHT22;11445;53.816;8.902;2023-01-08T08:45:30;8.40;99.90
22558;DHT22;11445;53.816;8.902;2023-01-08T08:47:57;8.40;99.90
22558;DHT22;11445;53.816;8.902;2023-01-08T08:50:24;8.40;99.90
22558;DHT22;11445;53.816;8.902;2023-01-08T08:52:58;8.40;99.90
22558;DHT22;11445;53.816;8.902;2023-01-08T08:55:25;8.40;99.90
22558;DHT22;11445;53.816;8.902;2023-01-08T08:57:52;8.40;99.90
22558;DHT22;11445;53.816;8.902;2023-01-08T09:00:19;8.40;99.90
22558;DHT22;11445;53.816;8.902;2023-01-08T09:02:48;8.40;99.90
22558;DHT22;11445;53.816;8.902;2023-01-08T09:05:15;8.40;99.90
22558;DHT22;11445;53.816;8.902;2023-01-08T09:07:42;8.40;99.90
22558;DHT22;11445;53.816;8.902;2023-01-08T09:10:11;8.40;99.90
22558;DHT22;11445;53.816;8.902;2023-01-08T09:12:38;8.40;99.90
22558;DHT22;11445;53.816;8.902;2023-01-08T09:15:05;8.40;99.90
22558;DHT22;11445;53.816;8.902;2023-01-08T09:17:33;8.40;99.90
22558;DHT22;11445;53.816;8.902;2023-01-08T09:20:01;8.40;99.90
22558;DHT22;11445;53.816;8.902;2023-01-08T09:22:28;8.40;99.90
22558;DHT22;11445;53.816;8.902;2023-01-08T09:24:55;8.40;99.90
22558;DHT22;11445;53.816;8.902;2023-01-08T09:27:23;8.40;99.90
22558;DHT22;11445;53.816;8.902;2023-01-08T09:29:50;8.40;99.90
22558;DHT22;11445;53.816;8.902;2023-01-08T09:32:17;8.40;99.90
22558;DHT22;11445;53.816;8.902;2023-01-08T09:34:44;8.50;99.90
22558;DHT22;11445;53.816;8.902;2023-01-08T09:37:11;8.50;99.90
22558;DHT22;11445;53.816;8.902;2023-01-08T09:39:38;8.50;99.90
22558;DHT22;11445;53.816;8.902;2023-01-08T09:42:06;8.50;99.90
22558;DHT22;11445;53.816;8.902;2023-01-08T09:44:37;8.50;99.90
22558;DHT22;11445;53.816;8.902;2023-01-08T09:47:13;8.50;99.90
22558;DHT22;11445;53.816;8.902;2023-01-08T09:49:43;8.50;99.90
22558;DHT22;11445;53.816;8.902;2023-01-08T09:52:13;8.50;99.90
22558;DHT22;11445;53.816;8.902;2023-01-08T09:54:41;8.50;99.90
22558;DHT22;11445;53.816;8.902;2023-01-08T09:57:11;8.60;99.90
22558;DHT22;11445;53.816;8.902;2023-01-08T09:59:40;8.60;99.90
22558;DHT22;11445;53.816;8.902;2023-01-08T10:02:12;8.60;99.90
22558;DHT22;11445;53.816;8.902;2023-01-08T10:04:40;8.60;99.90
22558;DHT22;11445;53.816;8.902;2023-01-08T10:07:13;8.60;99.90
22558;DHT22;11445;53.816;8.902;2023-01-08T10:09:43;8.70;99.90
22558;DHT22;11445;53.816;8.902;2023-01-08T10:12:10;8.80;99.90
22558;DHT22;11445;53.816;8.902;2023-01-08T10:14:40;8.80;99.90
22558;DHT22;11445;53.816;8.902;2023-01-08T10:17:20;8.80;99.90
22558;DHT22;11445;53.816;8.902;2023-01-08T10:19:49;8.90;99.90
22558;DHT22;11445;53.816;8.902;2023-01-08T10:22:18;8.90;99.90
22558;DHT22;11445;53.816;8.902;2023-01-08T10:24:46;8.90;99.90
22558;DHT22;11445;53.816;8.902;2023-01-08T10:27:15;8.90;99.90
22558;DHT22;11445;53.816;8.902;2023-01-08T10:29:44;8.90;99.90
22558;DHT22;11445;53.816;8.902;2023-01-08T10:32:14;8.90;99.90
22558;DHT22;11445;53.816;8.902;2023-01-08T10:34:44;8.90;99.90
22558;DHT22;11445;53.816;8.902;2023-01-08T10:37:21;8.90;99.90
22558;DHT22;11445;53.816;8.902;2023-01-08T10:39:49;9.00;99.90
22558;DHT22;11445;53.816;8.902;2023-01-08T10:42:18;9.10;99.90
22558;DHT22;11445;53.816;8.902;2023-01-08T10:44:54;9.10;99.90
22558;DHT22;11445;53.816;8.902;2023-01-08T10:47:22;9.10;99.90
22558;DHT22;11445;53.816;8.902;2023-01-08T10:49:50;9.10;99.90
22558;DHT22;11445;53.816;8.902;2023-01-08T10:52:26;9.20;99.90
22558;DHT22;11445;53.816;8.902;2023-01-08T10:54:54;9.20;99.90
22558;DHT22;11445;53.816;8.902;2023-01-08T10:57:24;9.20;99.90
22558;DHT22;11445;53.816;8.902;2023-01-08T10:59:53;9.20;99.90
22558;DHT22;11445;53.816;8.902;2023-01-08T11:02:31;9.20;99.90
22558;DHT22;11445;53.816;8.902;2023-01-08T11:04:59;9.10;99.90
22558;DHT22;11445;53.816;8.902;2023-01-08T11:07:27;9.10;99.90
22558;DHT22;11445;53.816;8.902;2023-01-08T11:09:55;9.10;99.90
22558;DHT22;11445;53.816;8.902;2023-01-08T11:12:34;9.10;99.90
22558;DHT22;11445;53.816;8.902;2023-01-08T11:15:04;9.10;99.90
22558;DHT22;11445;53.816;8.902;2023-01-08T11:17:32;9.20;99.90
22558;DHT22;11445;53.816;8.902;2023-01-08T11:20:08;9.20;99.90
22558;DHT22;11445;53.816;8.902;2023-01-08T11:22:36;9.20;99.90
22558;DHT22;11445;53.816;8.902;2023-01-08T11:25:07;9.20;99.90
22558;DHT22;11445;53.816;8.902;2023-01-08T11:27:40;9.30;99.90
22558;DHT22;11445;53.816;8.902;2023-01-08T11:30:12;9.30;99.90
22558;DHT22;11445;53.816;8.902;2023-01-08T11:32:44;9.40;99.90
22558;DHT22;11445;53.816;8.902;2023-01-08T11:35:16;9.40;99.90
22558;DHT22;11445;53.816;8.902;2023-01-08T11:37:49;9.40;99.90
22558;DHT22;11445;53.816;8.902;2023-01-08T11:40:22;9.50;99.90
22558;DHT22;11445;53.816;8.902;2023-01-08T11:43:10;9.50;99.90
22558;DHT22;11445;53.816;8.902;2023-01-08T11:45:49;9.50;99.90
22558;DHT22;11445;53.816;8.902;2023-01-08T11:48:40;9.50;99.90
22558;DHT22;11445;53.816;8.902;2023-01-08T11:51:26;9.50;99.90
22558;DHT22;11445;53.816;8.902;2023-01-08T11:54:01;9.50;99.90
22558;DHT22;11445;53.816;8.902;2023-01-08T11:56:44;9.50;99.90
22558;DHT22;11445;53.816;8.902;2023-01-08T11:59:21;9.60;99.90
22558;DHT22;11445;53.816;8.902;2023-01-08T12:01:57;9.60;99.90
22558;DHT22;11445;53.816;8.902;2023-01-08T12:04:47;9.60;99.90
22558;DHT22;11445;53.816;8.902;2023-01-08T12:07:20;9.60;99.90
22558;DHT22;11445;53.816;8.902;2023-01-08T12:09:56;9.60;99.90
22558;DHT22;11445;53.816;8.902;2023-01-08T12:12:41;9.60;99.90
22558;DHT22;11445;53.816;8.902;2023-01-08T12:15:17;9.60;99.90
22558;DHT22;11445;53.816;8.902;2023-01-08T12:18:03;9.70;99.90
22558;DHT22;11445;53.816;8.902;2023-01-08T12:20:38;9.70;99.90
22558;DHT22;11445;53.816;8.902;2023-01-08T12:23:17;9.80;99.90
22558;DHT22;11445;53.816;8.902;2023-01-08T12:26:02;9.80;99.90
22558;DHT22;11445;53.816;8.902;2023-01-08T12:31:45;9.90;99.90
22558;DHT22;11445;53.816;8.902;2023-01-08T12:34:24;10.00;99.90
22558;DHT22;11445;53.816;8.902;2023-01-08T12:37:02;10.00;99.90
22558;DHT22;11445;53.816;8.902;2023-01-08T12:39:34;10.10;99.90
22558;DHT22;11445;53.816;8.902;2023-01-08T12:42:08;10.00;99.90
22558;DHT22;11445;53.816;8.902;2023-01-08T12:44:37;10.10;99.90
22558;DHT22;11445;53.816;8.902;2023-01-08T12:47:07;10.10;99.90
22558;DHT22;11445;53.816;8.902;2023-01-08T12:49:44;10.10;99.90
22558;DHT22;11445;53.816;8.902;2023-01-08T12:52:15;10.20;99.90
22558;DHT22;11445;53.816;8.902;2023-01-08T12:54:49;10.20;99.90
22558;DHT22;11445;53.816;8.902;2023-01-08T12:57:26;10.10;99.90
22558;DHT22;11445;53.816;8.902;2023-01-08T12:59:59;10.10;99.90
22558;DHT22;11445;53.816;8.902;2023-01-08T13:02:33;10.10;99.90
22558;DHT22;11445;53.816;8.902;2023-01-08T13:05:12;10.00;99.90
22558;DHT22;11445;53.816;8.902;2023-01-08T13:07:44;10.00;99.90
22558;DHT22;11445;53.816;8.902;2023-01-08T13:10:22;10.00;99.90
22558;DHT22;11445;53.816;8.902;2023-01-08T13:12:53;9.90;99.90
22558;DHT22;11445;53.816;8.902;2023-01-08T13:15:24;9.90;99.90
22558;DHT22;11445;53.816;8.902;2023-01-08T13:17:53;9.90;99.90
22558;DHT22;11445;53.816;8.902;2023-01-08T13:20:25;9.90;99.90
22558;DHT22;11445;53.816;8.902;2023-01-08T13:22:53;9.90;99.90
22558;DHT22;11445;53.816;8.902;2023-01-08T13:25:32;9.90;99.90
22558;DHT22;11445;53.816;8.902;2023-01-08T13:28:00;9.80;99.90
22558;DHT22;11445;53.816;8.902;2023-01-08T13:30:36;9.80;99.90
22558;DHT22;11445;53.816;8.902;2023-01-08T13:33:35;9.80;99.90
22558;DHT22;11445;53.816;8.902;2023-01-08T13:36:22;9.80;99.90
22558;DHT22;11445;53.816;8.902;2023-01-08T13:39:00;9.80;99.90
22558;DHT22;11445;53.816;8.902;2023-01-08T13:41:28;9.80;99.90
22558;DHT22;11445;53.816;8.902;2023-01-08T13:44:01;9.80;99.90
22558;DHT22;11445;53.816;8.902;2023-01-08T13:46:31;9.80;99.90
22558;DHT22;11445;53.816;8.902;2023-01-08T13:49:01;9.80;99.90
22558;DHT22;11445;53.816;8.902;2023-01-08T13:51:40;9.80;99.90
22558;DHT22;11445;53.816;8.902;2023-01-08T13:54:23;9.80;99.90
22558;DHT22;11445;53.816;8.902;2023-01-08T13:56:54;9.80;99.90
22558;DHT22;11445;53.816;8.902;2023-01-08T13:59:36;9.70;99.90
22558;DHT22;11445;53.816;8.902;2023-01-08T14:02:21;9.70;99.90
22558;DHT22;11445;53.816;8.902;2023-01-08T14:04:48;9.70;99.90
22558;DHT22;11445;53.816;8.902;2023-01-08T14:07:17;9.70;99.90
22558;DHT22;11445;53.816;8.902;2023-01-08T14:09:44;9.70;99.90
22558;DHT22;11445;53.816;8.902;2023-01-08T14:12:13;9.60;99.90
22558;DHT22;11445;53.816;8.902;2023-01-08T14:14:44;9.70;99.90
22558;DHT22;11445;53.816;8.902;2023-01-08T14:17:14;9.90;99.90
22558;DHT22;11445;53.816;8.902;2023-01-08T14:19:42;10.10;99.90
22558;DHT22;11445;53.816;8.902;2023-01-08T14:22:15;10.20;99.90
22558;DHT22;11445;53.816;8.902;2023-01-08T14:24:50;10.20;99.90
22558;DHT22;11445;53.816;8.902;2023-01-08T14:27:20;10.10;99.90
22558;DHT22;11445;53.816;8.902;2023-01-08T14:29:48;10.00;99.90
22558;DHT22;11445;53.816;8.902;2023-01-08T14:32:16;9.90;99.90
22558;DHT22;11445;53.816;8.902;2023-01-08T14:34:44;9.80;99.90
22558;DHT22;11445;53.816;8.902;2023-01-08T14:37:13;9.70;99.90
22558;DHT22;11445;53.816;8.902;2023-01-08T14:39:41;9.60;99.90
22558;DHT22;11445;53.816;8.902;2023-01-08T14:42:14;9.50;99.90
22558;DHT22;11445;53.816;8.902;2023-01-08T14:45:03;9.40;99.90
22558;DHT22;11445;53.816;8.902;2023-01-08T14:47:35;9.30;99.90
22558;DHT22;11445;53.816;8.902;2023-01-08T14:50:04;9.20;99.90
22558;DHT22;11445;53.816;8.902;2023-01-08T14:52:32;9.20;99.90
22558;DHT22;11445;53.816;8.902;2023-01-08T14:55:00;9.10;99.90
22558;DHT22;11445;53.816;8.902;2023-01-08T14:57:30;9.10;99.90
22558;DHT22;11445;53.816;8.902;2023-01-08T14:59:59;9.00;99.90
22558;DHT22;11445;53.816;8.902;2023-01-08T15:02:28;9.00;99.90
22558;DHT22;11445;53.816;8.902;2023-01-08T15:05:01;9.00;99.90
22558;DHT22;11445;53.816;8.902;2023-01-08T15:07:28;8.90;99.90
22558;DHT22;11445;53.816;8.902;2023-01-08T15:09:57;8.90;99.90
22558;DHT22;11445;53.816;8.902;2023-01-08T15:12:27;8.80;99.90
22558;DHT22;11445;53.816;8.902;2023-01-08T15:15:07;8.80;99.90
22558;DHT22;11445;53.816;8.902;2023-01-08T15:17:34;8.70;99.90
22558;DHT22;11445;53.816;8.902;2023-01-08T15:20:01;8.70;99.90
22558;DHT22;11445;53.816;8.902;2023-01-08T15:22:29;8.70;99.90
22558;DHT22;11445;53.816;8.902;2023-01-08T15:24:58;8.70;99.90
22558;DHT22;11445;53.816;8.902;2023-01-08T15:27:26;8.60;99.90
22558;DHT22;11445;53.816;8.902;2023-01-08T15:29:57;8.60;99.90
22558;DHT22;11445;53.816;8.902;2023-01-08T15:32:28;8.60;99.90
22558;DHT22;11445;53.816;8.902;2023-01-08T15:34:57;8.50;99.90
22558;DHT22;11445;53.816;8.902;2023-01-08T15:37:24;8.40;99.90
22558;DHT22;11445;53.816;8.902;2023-01-08T15:39:51;8.40;99.90
22558;DHT22;11445;53.816;8.902;2023-01-08T15:42:20;8.30;99.90
22558;DHT22;11445;53.816;8.902;2023-01-08T15:45:12;8.30;99.90
22558;DHT22;11445;53.816;8.902;2023-01-08T15:47:39;8.20;99.90
22558;DHT22;11445;53.816;8.902;2023-01-08T15:50:07;8.20;99.90
22558;DHT22;11445;53.816;8.902;2023-01-08T15:52:36;8.20;99.90
22558;DHT22;11445;53.816;8.902;2023-01-08T15:55:05;8.20;99.90
22558;DHT22;11445;53.816;8.902;2023-01-08T15:57:32;8.10;99.90
22558;DHT22;11445;53.816;8.902;2023-01-08T15:59:59;8.10;99.90
22558;DHT22;11445;53.816;8.902;2023-01-08T16:02:28;8.10;99.90
22558;DHT22;11445;53.816;8.902;2023-01-08T16:04:55;8.10;99.90
22558;DHT22;11445;53.816;8.902;2023-01-08T16:07:22;8.10;99.90